Time;durP1;ratioP1;P1;durP2;ratioP2;P2;SDS_P1;SDS_P2;PMS_P1;PMS_P2;Temp;Humidity;BMP_temperature;BMP_pressure;BME280_temperature;BME280_humidity;BME280_pressure;Samples;Min_cycle;Max_cycle;Signal;HPM_P1;HPM_P2
2023/03/04 00:01:02;;;;;;;41.58;20.52;;;2.90;99.90;;;;;;4894430;29;20040;-73
2023/03/04 00:03:28;;;;;;;45.72;22.55;;;2.90;99.90;;;;;;4903171;29;20232;-73
2023/03/04 00:05:54;;;;;;;46.83;23.55;;;2.80;99.90;;;;;;4907097;29;20089;-72
2023/03/04 00:08:20;;;;;;;46.50;22.55;;;2.80;99.90;;;;;;4908198;29;20088;-73
2023/03/04 00:10:45;;;;;;;45.75;21.67;;;2.70;99.90;;;;;;4907494;29;20059;-72
2023/03/04 00:13:11;;;;;;;41.50;20.65;;;2.60;99.90;;;;;;4907849;29;20303;-72
2023/03/04 00:15:37;;;;;;;42.22;20.48;;;2.60;99.90;;;;;;4907615;29;20223;-73
2023/03/04 00:18:03;;;;;;;40.70;20.75;;;2.60;99.90;;;;;;4907444;29;20218;-72
2023/03/04 00:20:28;;;;;;;48.60;22.25;;;2.50;99.90;;;;;;4907917;29;20239;-73
2023/03/04 00:22:54;;;;;;;44.90;21.80;;;2.50;99.90;;;;;;4907624;29;20040;-73
2023/03/04 00:25:20;;;;;;;45.35;21.23;;;2.40;99.90;;;;;;4909647;29;20065;-73
2023/03/04 00:27:46;;;;;;;44.67;20.85;;;2.50;99.90;;;;;;4913889;29;20103;-72
2023/03/04 00:30:12;;;;;;;51.15;22.65;;;2.50;99.90;;;;;;4913412;29;20232;-73
2023/03/04 06:03:34;;;;;;;43.95;20.95;;;-0.60;99.90;;;;;;5004983;23;20058;-71
2023/03/04 06:05:59;;;;;;;44.05;20.58;;;-0.50;99.90;;;;;;4962478;29;20300;-73
2023/03/04 06:08:26;;;;;;;46.28;21.63;;;-0.50;99.90;;;;;;4962067;29;20093;-73
2023/03/04 06:10:54;;;;;;;49.00;20.85;;;-0.50;99.90;;;;;;4962326;28;20024;-73
2023/03/04 06:13:20;;;;;;;41.90;19.90;;;-0.50;99.90;;;;;;4962621;29;20070;-74
2023/03/04 06:15:47;;;;;;;45.50;20.45;;;-0.40;99.90;;;;;;4962763;28;20099;-73
2023/03/04 06:18:13;;;;;;;45.85;20.70;;;-0.40;99.90;;;;;;4954496;28;20026;-74
2023/03/04 06:20:39;;;;;;;46.45;21.25;;;-0.40;99.90;;;;;;4960240;28;20062;-74
2023/03/04 06:23:04;;;;;;;39.70;19.70;;;-0.40;99.90;;;;;;4962318;28;20094;-71
2023/03/04 06:25:31;;;;;;;46.25;20.92;;;-0.30;99.90;;;;;;4962331;29;20046;-73
2023/03/04 06:27:56;;;;;;;48.58;21.13;;;-0.40;99.90;;;;;;4962600;29;20050;-72
2023/03/04 06:30:22;;;;;;;46.25;20.52;;;-0.30;99.90;;;;;;4962401;28;20098;-72
2023/03/04 06:32:48;;;;;;;44.85;20.42;;;-0.30;99.90;;;;;;4962202;28;20581;-72
2023/03/04 06:35:15;;;;;;;45.25;20.67;;;-0.30;99.90;;;;;;4961902;28;20031;-72
2023/03/04 06:37:42;;;;;;;42.35;19.73;;;-0.20;99.90;;;;;;4947158;29;20106;-71
2023/03/04 06:40:09;;;;;;;44.95;20.67;;;-0.10;99.90;;;;;;4962581;29;20035;-75
2023/03/04 06:42:35;;;;;;;43.05;19.98;;;-0.10;99.90;;;;;;4962449;29;20091;-72
2023/03/04 06:45:02;;;;;;;44.83;20.23;;;0.00;99.90;;;;;;4963969;28;20091;-72
2023/03/04 06:47:27;;;;;;;42.03;18.55;;;0.00;99.90;;;;;;4962017;28;20123;-72
2023/03/04 06:49:53;;;;;;;44.13;19.85;;;0.00;99.90;;;;;;4960375;28;20317;-72
2023/03/04 06:52:19;;;;;;;43.40;18.70;;;0.10;99.90;;;;;;4962070;28;20027;-71
2023/03/04 06:54:44;;;;;;;42.42;18.25;;;0.10;99.90;;;;;;4966387;28;20321;-72
2023/03/04 06:57:10;;;;;;;39.13;18.38;;;0.10;99.90;;;;;;4966426;29;20174;-71
2023/03/04 06:59:36;;;;;;;43.17;18.15;;;0.20;99.90;;;;;;4965909;28;20136;-71
2023/03/04 07:02:01;;;;;;;39.78;17.85;;;0.30;99.90;;;;;;4965832;28;20098;-74
2023/03/04 07:04:27;;;;;;;41.40;17.67;;;0.60;99.90;;;;;;4948516;28;20046;-73
2023/03/04 07:06:53;;;;;;;37.00;17.38;;;0.60;99.90;;;;;;4966014;28;20035;-72
2023/03/04 07:09:19;;;;;;;39.13;17.52;;;0.80;99.90;;;;;;4964872;28;20023;-74
2023/03/04 07:11:44;;;;;;;39.35;18.65;;;0.80;99.90;;;;;;4964696;28;20198;-72
2023/03/04 07:14:10;;;;;;;38.15;16.85;;;0.90;99.90;;;;;;4966402;28;20027;-73
2023/03/04 07:16:36;;;;;;;37.53;17.75;;;1.00;99.90;;;;;;4964348;28;20035;-72
2023/03/04 07:19:02;;;;;;;40.10;18.33;;;1.00;99.90;;;;;;4965663;29;20031;-71
2023/03/04 07:21:28;;;;;;;39.65;17.08;;;1.00;99.90;;;;;;4965533;28;20186;-72
2023/03/04 07:23:54;;;;;;;33.90;18.17;;;1.10;99.90;;;;;;4965980;28;20087;-74
2023/03/04 07:26:19;;;;;;;35.17;16.20;;;1.10;99.90;;;;;;4962578;28;20344;-72
2023/03/04 07:28:45;;;;;;;37.97;16.80;;;1.20;99.90;;;;;;4965525;28;20031;-73
2023/03/04 07:31:32;;;;;;;37.13;17.23;;;1.20;99.90;;;;;;4961671;28;20421;-73
2023/03/04 07:34:07;;;;;;;37.92;17.10;;;1.20;99.90;;;;;;4963624;29;20027;-76
2023/03/04 07:36:35;;;;;;;34.67;16.42;;;1.40;99.90;;;;;;4940802;29;20034;-75
2023/03/04 07:39:05;;;;;;;35.15;16.33;;;1.40;99.90;;;;;;4965615;28;20311;-77
2023/03/04 07:41:34;;;;;;;32.95;16.40;;;1.40;99.90;;;;;;4966508;28;20312;-73
2023/03/04 07:44:01;;;;;;;32.63;16.55;;;1.50;99.90;;;;;;4965331;28;20106;-74
2023/03/04 07:46:26;;;;;;;31.15;15.20;;;1.70;99.90;;;;;;4964723;28;20094;-74
2023/03/04 07:48:54;;;;;;;34.13;15.95;;;1.80;99.90;;;;;;4965264;28;20057;-73
2023/03/04 07:51:21;;;;;;;32.05;15.23;;;1.90;99.90;;;;;;4961341;28;20039;-74
2023/03/04 07:53:50;;;;;;;32.42;16.38;;;1.90;99.90;;;;;;4964699;28;20043;-74
2023/03/04 07:56:18;;;;;;;33.40;16.55;;;1.90;99.90;;;;;;4960715;29;20285;-74
2023/03/04 07:58:45;;;;;;;33.83;15.50;;;1.90;99.90;;;;;;4963729;28;20027;-74
2023/03/04 08:01:17;;;;;;;31.23;15.55;;;1.90;99.90;;;;;;4962274;28;20040;-75
2023/03/04 08:03:43;;;;;;;33.20;16.60;;;1.80;99.90;;;;;;4960169;28;20094;-74
2023/03/04 08:06:12;;;;;;;36.67;16.95;;;1.70;99.90;;;;;;4962214;28;20035;-74
2023/03/04 08:08:38;;;;;;;32.88;16.42;;;1.60;99.90;;;;;;4964692;28;20098;-74
2023/03/04 08:11:06;;;;;;;33.22;16.58;;;1.60;99.90;;;;;;4964256;29;20027;-75
2023/03/04 08:13:31;;;;;;;33.40;15.80;;;1.50;99.90;;;;;;4964512;28;20185;-74
2023/03/04 08:15:57;;;;;;;33.40;15.50;;;1.50;99.90;;;;;;4961899;28;20128;-74
2023/03/04 08:18:23;;;;;;;32.67;16.08;;;1.50;99.90;;;;;;4963049;29;20094;-74
2023/03/04 08:20:49;;;;;;;33.00;15.00;;;1.50;99.90;;;;;;4964411;28;20074;-74
2023/03/04 08:23:14;;;;;;;34.03;15.45;;;1.50;99.90;;;;;;4964402;29;20271;-74
2023/03/04 08:25:41;;;;;;;31.17;15.13;;;1.60;99.90;;;;;;4962781;28;20043;-74
2023/03/04 08:28:08;;;;;;;30.42;14.68;;;1.70;99.90;;;;;;4964310;28;20212;-75
2023/03/04 08:30:35;;;;;;;28.67;13.38;;;1.70;99.90;;;;;;4963572;28;20043;-74
2023/03/04 08:33:02;;;;;;;29.08;14.15;;;1.90;99.90;;;;;;4960432;28;20031;-75
2023/03/04 08:35:29;;;;;;;29.15;14.98;;;1.90;99.90;;;;;;4960101;28;20039;-76
2023/03/04 08:37:55;;;;;;;29.05;14.60;;;2.10;99.90;;;;;;4938780;28;20297;-74
2023/03/04 08:40:20;;;;;;;32.15;15.10;;;2.10;99.90;;;;;;4977713;28;20075;-74
2023/03/04 08:42:46;;;;;;;27.90;13.82;;;2.20;99.90;;;;;;4982482;28;20030;-74
2023/03/04 08:45:12;;;;;;;31.80;15.57;;;2.20;99.90;;;;;;4982077;28;20039;-74
2023/03/04 08:47:39;;;;;;;29.92;14.95;;;2.20;99.90;;;;;;4983187;28;20035;-75
2023/03/04 08:50:06;;;;;;;28.30;14.85;;;2.30;99.90;;;;;;4982995;28;20038;-75
2023/03/04 08:52:32;;;;;;;34.97;16.38;;;2.30;99.90;;;;;;4982681;28;20030;-75
2023/03/04 08:54:58;;;;;;;32.88;16.35;;;2.30;99.90;;;;;;4980261;28;20046;-74
2023/03/04 08:57:24;;;;;;;34.13;16.17;;;2.30;99.90;;;;;;4983256;28;20253;-75
2023/03/04 08:59:49;;;;;;;32.15;15.60;;;2.20;99.90;;;;;;4983016;28;20073;-76
2023/03/04 09:02:15;;;;;;;33.33;16.98;;;2.20;99.90;;;;;;4979658;28;20050;-75
2023/03/04 09:04:41;;;;;;;34.25;16.27;;;2.40;99.90;;;;;;4980284;28;20368;-75
2023/03/04 09:07:08;;;;;;;35.10;16.80;;;2.40;99.90;;;;;;4976944;28;20043;-75
2023/03/04 09:09:34;;;;;;;33.72;16.33;;;2.50;99.90;;;;;;4970653;28;20039;-75
2023/03/04 09:12:00;;;;;;;33.17;16.52;;;2.60;99.90;;;;;;4979484;28;20120;-75
2023/03/04 09:14:26;;;;;;;37.88;17.42;;;2.80;99.90;;;;;;4983557;28;20064;-75
2023/03/04 09:16:52;;;;;;;32.55;15.93;;;2.90;99.90;;;;;;4995616;28;20244;-76
2023/03/04 09:19:17;;;;;;;33.83;15.98;;;3.00;99.90;;;;;;4979162;28;20026;-75
2023/03/04 09:21:43;;;;;;;35.15;16.85;;;3.10;99.90;;;;;;4982241;28;20074;-75
2023/03/04 09:24:09;;;;;;;33.58;16.35;;;3.10;99.90;;;;;;4980038;28;20041;-75
2023/03/04 09:26:34;;;;;;;32.65;16.40;;;3.20;99.90;;;;;;4971506;28;20050;-76
2023/03/04 09:29:01;;;;;;;33.00;16.15;;;3.20;99.90;;;;;;4982183;28;20034;-76
2023/03/04 09:31:28;;;;;;;30.25;15.65;;;3.30;99.90;;;;;;4981385;28;20329;-76
2023/03/04 09:33:56;;;;;;;29.92;15.75;;;3.40;99.90;;;;;;4971016;28;20038;-76
2023/03/04 09:36:23;;;;;;;29.33;15.45;;;3.40;99.90;;;;;;4978828;28;20043;-79
2023/03/04 09:38:48;;;;;;;31.13;15.50;;;3.50;99.90;;;;;;4970760;28;20329;-75
2023/03/04 09:41:19;;;;;;;27.60;14.00;;;3.60;99.90;;;;;;4982179;28;20041;-75
2023/03/04 09:43:47;;;;;;;30.80;15.20;;;3.50;99.90;;;;;;4981593;28;20074;-75
2023/03/04 09:46:21;;;;;;;32.88;16.17;;;3.60;99.90;;;;;;4978357;28;20351;-75
2023/03/04 09:48:53;;;;;;;27.33;13.90;;;3.70;99.90;;;;;;4975132;28;20245;-74
2023/03/04 09:51:30;;;;;;;27.17;15.23;;;3.80;99.90;;;;;;4980100;28;20102;-74
2023/03/04 09:54:17;;;;;;;26.80;14.00;;;3.60;99.90;;;;;;4980480;28;20114;-75
2023/03/04 09:56:43;;;;;;;22.30;13.05;;;3.60;99.90;;;;;;4973521;28;20248;-75
2023/03/04 09:59:24;;;;;;;30.75;15.05;;;3.50;99.90;;;;;;4982395;28;20115;-74
2023/03/04 10:02:06;;;;;;;27.27;14.30;;;3.50;99.90;;;;;;4980861;28;20042;-73
2023/03/04 10:04:45;;;;;;;27.65;13.95;;;3.50;99.90;;;;;;4979178;28;20249;-74
2023/03/04 10:07:40;;;;;;;25.98;13.85;;;3.70;99.90;;;;;;4974436;28;20027;-74
2023/03/04 10:10:19;;;;;;;23.80;13.70;;;3.70;99.90;;;;;;4975302;28;20051;-74
2023/03/04 10:12:47;;;;;;;28.23;14.13;;;4.10;99.90;;;;;;4980727;28;20077;-74
2023/03/04 10:15:45;;;;;;;24.95;13.52;;;4.30;99.90;;;;;;4981056;28;20031;-75
2023/03/04 10:18:26;;;;;;;26.10;13.60;;;4.60;99.30;;;;;;4980378;28;20217;-74
2023/03/04 10:21:04;;;;;;;26.15;14.13;;;5.00;98.50;;;;;;4981084;28;20066;-74
2023/03/04 10:23:33;;;;;;;25.95;13.98;;;5.00;97.40;;;;;;4977812;28;20058;-75
2023/03/04 10:26:09;;;;;;;26.88;14.90;;;4.90;97.50;;;;;;4967091;28;20047;-74
2023/03/04 10:28:35;;;;;;;25.75;15.00;;;5.00;97.30;;;;;;4980289;28;20026;-75
2023/03/04 10:31:28;;;;;;;26.08;14.85;;;4.80;96.90;;;;;;4982098;28;20062;-73
2023/03/04 10:33:54;;;;;;;25.70;13.95;;;4.90;97.20;;;;;;4981689;28;20041;-74
2023/03/04 10:36:52;;;;;;;25.55;14.32;;;4.90;97.00;;;;;;4981416;28;20027;-75
2023/03/04 10:39:31;;;;;;;28.75;16.63;;;4.90;97.40;;;;;;4977453;28;20070;-74
2023/03/04 10:41:59;;;;;;;30.48;16.27;;;4.90;96.70;;;;;;4979156;28;20039;-74
2023/03/04 10:44:25;;;;;;;34.47;17.88;;;4.90;96.70;;;;;;4980393;28;20372;-74
2023/03/04 10:46:54;;;;;;;31.92;16.58;;;4.90;96.00;;;;;;4980814;28;20119;-74
2023/03/04 10:49:21;;;;;;;32.78;17.05;;;4.70;96.70;;;;;;4981133;28;20050;-74
2023/03/04 10:52:02;;;;;;;32.50;17.40;;;4.70;96.90;;;;;;4973860;28;20325;-74
2023/03/04 10:54:34;;;;;;;31.48;17.85;;;4.90;96.10;;;;;;4980346;28;20135;-74
2023/03/04 10:57:18;;;;;;;33.17;18.45;;;5.00;95.40;;;;;;4980777;28;20244;-74
2023/03/04 10:59:52;;;;;;;31.40;17.75;;;5.00;95.50;;;;;;4980895;28;20102;-74
2023/03/04 11:02:22;;;;;;;34.17;18.77;;;4.90;95.60;;;;;;4977314;28;20205;-75
2023/03/04 11:04:55;;;;;;;32.95;18.67;;;5.00;95.70;;;;;;4975760;28;20047;-75
2023/03/04 11:07:23;;;;;;;34.20;18.92;;;4.80;96.00;;;;;;4975355;28;20035;-74
2023/03/04 11:09:49;;;;;;;;;;;4.70;96.10;;;;;;4976529;28;20065;-75
2023/03/04 11:12:18;;;;;;;35.40;19.23;;;4.70;96.20;;;;;;4978667;28;20159;-75
2023/03/04 11:14:49;;;;;;;35.67;19.80;;;4.70;96.10;;;;;;4976858;28;20043;-75
2023/03/04 11:17:24;;;;;;;37.20;18.75;;;4.70;96.30;;;;;;4978675;28;20066;-76
2023/03/04 11:20:12;;;;;;;34.45;19.27;;;4.80;96.30;;;;;;4976847;28;20248;-75
2023/03/04 11:22:38;;;;;;;39.80;21.38;;;4.80;96.60;;;;;;4979297;28;20317;-76
2023/03/04 11:25:37;;;;;;;36.53;20.52;;;4.90;96.00;;;;;;4980503;28;20054;-73
2023/03/04 11:28:27;;;;;;;37.75;20.55;;;4.90;95.10;;;;;;4975635;28;20134;-74
2023/03/04 11:31:00;;;;;;;36.88;20.65;;;4.90;94.80;;;;;;4975150;28;20058;-74
2023/03/04 11:33:41;;;;;;;35.10;19.88;;;4.90;94.90;;;;;;4976913;28;20094;-74
2023/03/04 11:36:32;;;;;;;38.53;21.10;;;4.80;95.10;;;;;;4979353;28;20030;-74
2023/03/04 11:39:00;;;;;;;37.17;21.02;;;4.80;95.30;;;;;;4977351;28;20241;-73
2023/03/04 11:41:39;;;;;;;40.37;21.77;;;4.80;95.20;;;;;;4983177;28;20038;-74
2023/03/04 11:44:07;;;;;;;43.72;23.40;;;4.80;95.00;;;;;;4983171;28;20494;-73
2023/03/04 11:46:42;;;;;;;40.55;20.88;;;4.70;95.20;;;;;;4996811;28;20079;-75
2023/03/04 11:49:33;;;;;;;44.30;22.85;;;4.70;95.20;;;;;;4984359;28;20074;-74
2023/03/04 11:52:12;;;;;;;41.47;22.58;;;4.70;95.20;;;;;;4969256;28;20069;-74
2023/03/04 11:54:59;;;;;;;42.65;22.83;;;4.70;95.00;;;;;;4980368;28;20035;-74
2023/03/04 11:57:36;;;;;;;45.70;24.00;;;4.80;94.70;;;;;;4975265;28;20027;-74
2023/03/04 12:00:22;;;;;;;43.85;23.35;;;4.80;94.60;;;;;;4979530;28;21091;-74
2023/03/04 12:03:12;;;;;;;41.53;22.25;;;4.90;94.70;;;;;;4980395;28;20062;-74
2023/03/04 12:06:10;;;;;;;41.53;23.25;;;5.10;94.60;;;;;;4976898;28;20043;-75
2023/03/04 12:08:52;;;;;;;45.20;24.23;;;5.10;94.30;;;;;;4977261;28;20034;-74
2023/03/04 12:11:59;;;;;;;46.78;23.58;;;5.00;94.80;;;;;;4962362;28;20058;-75
2023/03/04 12:14:56;;;;;;;44.33;22.67;;;5.00;94.90;;;;;;4979557;28;20086;-75
2023/03/04 12:17:36;;;;;;;43.08;22.70;;;5.10;94.70;;;;;;4981380;28;20040;-74
2023/03/04 12:20:26;;;;;;;48.70;23.98;;;5.00;94.80;;;;;;4980150;28;20030;-75
2023/03/04 12:23:13;;;;;;;47.53;24.55;;;5.00;95.20;;;;;;4978410;28;20043;-76
2023/03/04 12:25:39;;;;;;;41.95;23.48;;;5.00;95.10;;;;;;4983344;28;20042;-75
2023/03/04 12:28:41;;;;;;;43.35;23.90;;;5.00;95.20;;;;;;4983869;28;20236;-75
2023/03/04 12:31:16;;;;;;;47.35;23.38;;;4.90;95.20;;;;;;4978113;28;20031;-74
2023/03/04 12:33:59;;;;;;;49.88;25.23;;;4.80;95.50;;;;;;4980809;28;20037;-74
2023/03/04 12:36:47;;;;;;;43.05;23.63;;;4.70;95.40;;;;;;4964551;28;20042;-73
2023/03/04 12:39:30;;;;;;;46.20;24.30;;;4.70;95.60;;;;;;4982139;28;20093;-73
2023/03/04 12:42:22;;;;;;;44.35;23.60;;;4.70;95.50;;;;;;4980922;28;20062;-76
2023/03/04 12:45:02;;;;;;;42.08;23.35;;;4.70;95.20;;;;;;4978757;28;20035;-76
2023/03/04 12:47:45;;;;;;;46.35;23.80;;;4.70;95.20;;;;;;4980174;28;20094;-77
2023/03/04 12:50:29;;;;;;;48.15;23.83;;;4.50;95.50;;;;;;4968213;28;20098;-78
2023/03/04 12:53:12;;;;;;;46.58;25.40;;;4.50;95.90;;;;;;4981035;28;20042;-78
2023/03/04 12:55:42;;;;;;;42.45;23.70;;;4.50;95.90;;;;;;4983189;28;20066;-77
2023/03/04 12:58:19;;;;;;;50.55;25.20;;;4.60;95.70;;;;;;4978166;28;20093;-78
2023/03/04 13:01:14;;;;;;;48.33;25.13;;;4.60;95.80;;;;;;4980674;28;20054;-76
2023/03/04 13:03:55;;;;;;;46.88;24.67;;;4.70;95.90;;;;;;4985525;28;20082;-78
2023/03/04 13:06:33;;;;;;;49.30;24.45;;;4.80;95.90;;;;;;4989471;28;20101;-76
2023/03/04 13:09:05;;;;;;;47.63;23.95;;;4.80;95.50;;;;;;4967378;28;20034;-76
2023/03/04 13:11:39;;;;;;;42.65;23.65;;;4.80;95.00;;;;;;4982940;28;20090;-75
2023/03/04 13:14:18;;;;;;;46.20;24.15;;;4.80;95.20;;;;;;4983021;28;20053;-76
2023/03/04 13:16:49;;;;;;;46.60;24.10;;;4.70;95.50;;;;;;4980657;28;20242;-75
2023/03/04 13:19:39;;;;;;;49.38;25.00;;;4.70;95.40;;;;;;4982739;28;20039;-75
2023/03/04 13:22:31;;;;;;;46.22;24.02;;;4.70;95.50;;;;;;4982458;28;20089;-73
2023/03/04 13:25:00;;;;;;;49.40;24.40;;;4.70;95.60;;;;;;4976836;28;20050;-74
2023/03/04 13:27:47;;;;;;;44.97;24.55;;;4.60;95.70;;;;;;4979711;28;20055;-74
2023/03/04 13:30:31;;;;;;;47.13;23.67;;;4.60;95.40;;;;;;4966452;28;20034;-73
2023/03/04 13:33:07;;;;;;;45.53;23.45;;;4.80;95.30;;;;;;4978247;28;20038;-75
2023/03/04 13:35:47;;;;;;;44.08;23.10;;;4.70;95.10;;;;;;4982122;28;20034;-74
2023/03/04 13:38:32;;;;;;;43.10;22.23;;;4.60;95.20;;;;;;4982697;28;20309;-74
2023/03/04 13:41:04;;;;;;;36.53;20.48;;;4.60;95.10;;;;;;4981473;28;20281;-75
2023/03/04 13:43:48;;;;;;;36.38;18.20;;;4.70;95.10;;;;;;4981597;28;20170;-74
2023/03/04 13:46:20;;;;;;;33.80;17.48;;;4.60;94.90;;;;;;4983463;28;20039;-74
2023/03/04 13:49:01;;;;;;;34.17;18.08;;;4.50;94.80;;;;;;4982826;28;20050;-75
2023/03/04 13:51:45;;;;;;;35.72;18.13;;;4.50;94.90;;;;;;4977950;28;20018;-74
2023/03/04 13:54:23;;;;;;;32.15;17.40;;;4.50;94.80;;;;;;4977625;28;20038;-73
2023/03/04 13:57:20;;;;;;;31.15;13.65;;;4.40;94.70;;;;;;4982849;28;20076;-75
2023/03/04 14:00:10;;;;;;;28.20;15.23;;;4.30;95.10;;;;;;4982521;28;20022;-75
2023/03/04 14:02:35;;;;;;;27.38;15.20;;;4.10;95.50;;;;;;4972489;28;20055;-74
2023/03/04 14:05:02;;;;;;;28.42;14.07;;;4.10;95.90;;;;;;4982248;28;20034;-74
2023/03/04 14:07:33;;;;;;;28.88;14.48;;;4.20;95.60;;;;;;4983616;28;20384;-74
2023/03/04 14:10:22;;;;;;;30.75;14.85;;;4.20;95.60;;;;;;4965857;28;20026;-73
2023/03/04 14:12:52;;;;;;;;;;;4.30;95.60;;;;;;4982976;28;20225;-76
2023/03/04 14:15:21;;;;;;;29.98;14.20;;;4.20;95.80;;;;;;4983412;28;19929;-75
2023/03/04 14:17:48;;;;;;;;;;;4.20;95.80;;;;;;4983121;28;20018;-75
2023/03/04 14:20:59;;;;;;;26.00;13.53;;;4.30;95.80;;;;;;4982850;28;19912;-75
2023/03/04 14:23:29;;;;;;;27.73;13.00;;;4.20;95.90;;;;;;4922405;28;20062;-74
2023/03/04 14:26:13;;;;;;;22.70;12.45;;;4.20;95.80;;;;;;4982950;28;20038;-76
2023/03/04 14:28:43;;;;;;;26.13;12.25;;;4.30;95.50;;;;;;4983128;28;20034;-73
2023/03/04 14:31:16;;;;;;;28.13;12.60;;;4.40;95.50;;;;;;4994929;28;20042;-74
2023/03/04 14:33:45;;;;;;;28.17;12.95;;;4.40;95.20;;;;;;4983040;28;20031;-75
2023/03/04 14:36:20;;;;;;;24.77;12.63;;;4.30;95.20;;;;;;4983076;28;20039;-76
2023/03/04 14:38:55;;;;;;;29.45;13.55;;;4.20;95.30;;;;;;4981336;28;20034;-73
2023/03/04 14:41:27;;;;;;;25.95;13.55;;;4.10;95.70;;;;;;4982862;28;20049;-75
2023/03/04 14:43:58;;;;;;;27.52;13.90;;;4.10;95.80;;;;;;4979216;28;20070;-76
2023/03/04 14:46:29;;;;;;;28.90;14.38;;;4.20;95.80;;;;;;4982907;28;20046;-73
2023/03/04 14:48:55;;;;;;;27.45;14.20;;;4.10;95.90;;;;;;4982252;28;20073;-72
2023/03/04 14:51:53;;;;;;;30.75;15.10;;;4.10;95.90;;;;;;4982961;28;20035;-72
2023/03/04 14:54:27;;;;;;;;;;;4.10;96.20;;;;;;4956349;28;20043;-73
2023/03/04 14:56:52;;;;;;;27.80;13.60;;;4.10;96.30;;;;;;4982392;28;19906;-75
2023/03/04 14:59:33;;;;;;;29.52;14.13;;;4.00;96.40;;;;;;4982562;28;20027;-71
2023/03/04 15:02:23;;;;;;;30.40;14.73;;;4.00;96.50;;;;;;4981771;28;20069;-74
2023/03/04 15:04:50;;;;;;;30.55;13.90;;;4.00;96.50;;;;;;4982227;28;20316;-72
2023/03/04 15:07:20;;;;;;;30.57;13.87;;;4.00;96.60;;;;;;4982737;28;20077;-74
2023/03/04 15:09:54;;;;;;;29.33;13.18;;;4.00;96.50;;;;;;4982400;28;20037;-72
2023/03/04 15:12:27;;;;;;;27.42;13.38;;;3.90;96.50;;;;;;4982597;28;20039;-73
2023/03/04 15:14:58;;;;;;;31.23;14.93;;;3.90;96.70;;;;;;4984404;28;20058;-73
2023/03/04 15:17:43;;;;;;;31.88;15.23;;;4.00;96.70;;;;;;4968841;28;20105;-74
2023/03/04 15:20:08;;;;;;;30.42;14.82;;;3.90;96.70;;;;;;4985990;28;20278;-73
2023/03/04 15:22:35;;;;;;;30.30;14.70;;;3.90;96.80;;;;;;4986248;28;20077;-75
2023/03/04 15:25:02;;;;;;;30.90;14.75;;;3.90;96.80;;;;;;4985576;28;20042;-74
2023/03/04 15:27:29;;;;;;;31.63;15.45;;;3.90;96.90;;;;;;4986319;28;20109;-74
2023/03/04 15:29:58;;;;;;;32.25;14.45;;;3.90;97.20;;;;;;4985447;28;20074;-74
2023/03/04 15:32:28;;;;;;;27.75;13.10;;;3.90;97.10;;;;;;4977392;28;20027;-74
2023/03/04 15:34:54;;;;;;;28.48;13.38;;;3.90;97.00;;;;;;4985336;28;20090;-75
2023/03/04 15:37:28;;;;;;;28.90;12.30;;;3.90;97.00;;;;;;4992978;28;20033;-74
2023/03/04 15:39:57;;;;;;;25.33;12.38;;;3.80;96.80;;;;;;4985548;28;20058;-73
2023/03/04 15:42:24;;;;;;;26.92;12.30;;;3.80;96.90;;;;;;4985741;28;20331;-74
2023/03/04 15:44:49;;;;;;;28.60;12.38;;;3.80;97.00;;;;;;4985496;28;20081;-73
2023/03/04 15:47:15;;;;;;;25.65;12.60;;;3.80;97.20;;;;;;4985740;28;20082;-73
2023/03/04 15:49:43;;;;;;;28.35;14.05;;;3.70;97.30;;;;;;4985651;28;20045;-75
2023/03/04 15:52:20;;;;;;;30.02;14.52;;;3.70;97.50;;;;;;4985281;28;20066;-75
2023/03/04 15:54:47;;;;;;;33.00;15.35;;;3.70;97.60;;;;;;4952360;28;20089;-73
2023/03/04 15:57:24;;;;;;;29.58;14.80;;;3.80;97.60;;;;;;4985636;28;20266;-74
2023/03/04 15:59:51;;;;;;;32.00;15.53;;;3.80;97.60;;;;;;4985202;28;20045;-72
2023/03/04 16:02:26;;;;;;;32.78;15.65;;;3.80;97.50;;;;;;4984701;28;20043;-74
2023/03/04 16:04:52;;;;;;;35.67;16.20;;;3.80;97.60;;;;;;4984702;28;20046;-73
2023/03/04 16:07:22;;;;;;;37.67;15.48;;;3.80;97.50;;;;;;4985648;28;20216;-75
2023/03/04 16:10:21;;;;;;;34.13;15.35;;;3.80;97.80;;;;;;4985162;28;20213;-74
2023/03/04 16:12:46;;;;;;;;;;;3.80;97.60;;;;;;4976988;28;20046;-74
2023/03/04 16:15:17;;;;;;;33.00;15.35;;;3.80;97.70;;;;;;4985444;28;20100;-79
2023/03/04 16:17:44;;;;;;;31.63;15.77;;;3.80;97.70;;;;;;4985350;28;20026;-78
2023/03/04 16:20:13;;;;;;;33.47;15.27;;;3.80;97.80;;;;;;4983944;28;20124;-71
2023/03/04 16:22:40;;;;;;;28.23;14.18;;;3.80;97.70;;;;;;4985142;28;20046;-71
2023/03/04 16:25:10;;;;;;;34.58;16.20;;;3.80;97.70;;;;;;4984270;28;20156;-71
2023/03/04 16:27:35;;;;;;;34.08;15.50;;;3.70;97.70;;;;;;4984150;28;20057;-72
2023/03/04 16:30:01;;;;;;;31.20;14.02;;;3.70;98.00;;;;;;4984310;28;20283;-70
2023/03/04 16:32:30;;;;;;;31.92;14.77;;;3.70;97.90;;;;;;4984331;28;20290;-70
2023/03/04 16:34:55;;;;;;;32.63;14.82;;;3.70;98.10;;;;;;4984319;28;20042;-71
2023/03/04 16:37:21;;;;;;;33.42;16.10;;;3.60;98.10;;;;;;4975528;28;20073;-72
2023/03/04 16:39:48;;;;;;;31.33;14.75;;;3.60;98.20;;;;;;4984035;28;20019;-72
2023/03/04 16:42:20;;;;;;;30.27;14.00;;;3.60;98.30;;;;;;4966050;28;20039;-70
2023/03/04 16:44:47;;;;;;;33.20;14.43;;;3.60;98.30;;;;;;4983688;28;20038;-70
2023/03/04 16:47:13;;;;;;;34.95;15.20;;;3.60;98.50;;;;;;4984586;28;20039;-71
2023/03/04 16:49:39;;;;;;;31.00;14.75;;;3.60;98.50;;;;;;4972530;28;20034;-72
2023/03/04 16:52:07;;;;;;;31.55;14.85;;;3.60;98.60;;;;;;4978075;28;20034;-70
2023/03/04 16:54:35;;;;;;;33.50;15.98;;;3.60;98.80;;;;;;4984558;28;20038;-71
2023/03/04 16:57:00;;;;;;;30.42;14.75;;;3.50;98.90;;;;;;4966419;28;20037;-70
2023/03/04 16:59:27;;;;;;;31.00;13.55;;;3.50;99.00;;;;;;4984582;28;20034;-70
2023/03/04 17:01:53;;;;;;;29.20;14.05;;;3.50;99.00;;;;;;4984091;28;20149;-71
2023/03/04 17:04:20;;;;;;;31.75;14.25;;;3.50;99.10;;;;;;4984363;28;20281;-71
2023/03/04 17:06:46;;;;;;;30.73;14.85;;;3.50;99.10;;;;;;4967211;28;20038;-70
2023/03/04 17:09:12;;;;;;;35.40;15.10;;;3.50;99.30;;;;;;4983686;28;20057;-70
2023/03/04 17:11:38;;;;;;;33.15;15.00;;;3.40;99.50;;;;;;4984206;28;20040;-72
2023/03/04 17:14:04;;;;;;;30.33;14.68;;;3.50;99.40;;;;;;4966879;28;20027;-74
2023/03/04 17:16:30;;;;;;;32.97;14.55;;;3.50;99.30;;;;;;4984391;28;20022;-73
2023/03/04 17:18:56;;;;;;;31.30;14.55;;;3.50;99.40;;;;;;4983503;28;20045;-71
2023/03/04 17:21:24;;;;;;;33.10;14.85;;;3.50;99.30;;;;;;4983934;28;20039;-71
2023/03/04 17:23:51;;;;;;;31.77;15.02;;;3.50;99.50;;;;;;4983342;28;20035;-72
2023/03/04 17:26:19;;;;;;;33.10;15.88;;;3.50;99.60;;;;;;4984166;28;20038;-71
2023/03/04 17:28:45;;;;;;;;;;;3.50;99.60;;;;;;4984346;28;20050;-72
2023/03/04 17:31:14;;;;;;;35.05;15.25;;;3.50;99.70;;;;;;4983673;28;19913;-72
2023/03/04 17:33:40;;;;;;;32.28;15.23;;;3.50;99.70;;;;;;4981600;28;20217;-72
2023/03/04 17:36:06;;;;;;;31.17;15.75;;;3.50;99.80;;;;;;4983173;28;20110;-72
2023/03/04 17:38:32;;;;;;;33.10;15.25;;;3.50;99.90;;;;;;4983343;28;20045;-72
2023/03/04 17:41:06;;;;;;;31.05;14.90;;;3.50;99.90;;;;;;4983261;28;20208;-70
2023/03/04 17:43:32;;;;;;;36.00;16.13;;;3.50;99.90;;;;;;4983357;28;20305;-71
2023/03/04 17:46:06;;;;;;;34.42;17.23;;;3.60;99.90;;;;;;4983167;28;20034;-70
2023/03/04 17:48:32;;;;;;;33.05;15.65;;;3.60;99.80;;;;;;4983949;28;20054;-71
2023/03/04 17:51:01;;;;;;;35.10;16.95;;;3.60;99.90;;;;;;4983343;28;20081;-76
2023/03/04 17:53:27;;;;;;;36.05;17.45;;;3.60;99.80;;;;;;4983847;28;20038;-75
2023/03/04 17:56:00;;;;;;;37.60;17.05;;;3.60;99.80;;;;;;4983616;28;20331;-73
2023/03/04 17:58:27;;;;;;;36.28;17.00;;;3.70;99.70;;;;;;4983491;28;20086;-77
2023/03/04 18:00:58;;;;;;;37.42;16.17;;;3.80;99.50;;;;;;4982809;28;20098;-72
2023/03/04 18:03:24;;;;;;;42.70;17.25;;;3.70;99.60;;;;;;4981488;28;20325;-74
2023/03/04 18:05:50;;;;;;;39.53;18.05;;;3.70;99.70;;;;;;4983015;28;20053;-73
2023/03/04 18:08:17;;;;;;;39.97;17.58;;;3.70;99.60;;;;;;4982946;28;20321;-73
2023/03/04 18:10:43;;;;;;;38.58;17.23;;;3.70;99.60;;;;;;4981148;28;20042;-74
2023/03/04 18:13:09;;;;;;;36.53;16.13;;;3.70;99.70;;;;;;4979488;28;20046;-72
2023/03/04 18:15:34;;;;;;;34.08;17.02;;;3.70;99.80;;;;;;4982392;28;20090;-73
2023/03/04 18:18:00;;;;;;;39.92;17.98;;;3.80;99.70;;;;;;4983075;28;20023;-77
2023/03/04 18:20:27;;;;;;;38.40;17.33;;;3.80;99.60;;;;;;4965611;28;20097;-73
2023/03/04 18:22:55;;;;;;;38.67;16.27;;;3.70;99.70;;;;;;4983133;28;20058;-70
2023/03/04 18:25:21;;;;;;;33.90;16.67;;;3.70;99.70;;;;;;4983079;28;20254;-72
2023/03/04 18:27:47;;;;;;;39.00;16.90;;;3.70;99.70;;;;;;4983158;28;20034;-76
2023/03/04 18:30:16;;;;;;;34.72;15.43;;;3.70;99.70;;;;;;4966535;28;20051;-74
2023/03/04 18:32:43;;;;;;;31.13;15.30;;;3.80;99.50;;;;;;4972999;28;20114;-76